Auburn, IL

7:39 AM CST on December 14, 2019 (GMT -0600)
Auburn | | Change Station
Active Advisory: Winter Storm Watch

Elev 620 ft 39.59 °N, 89.73 °W | Updated 15 seconds ago

Snow
Snow
34 °F
Feels Like 34 °F
N
2.9
Wind Variable Wind from ENE
Gusts 3.4 mph

Today
High -- | Low -- °F
--% Chance of Precip.
Yesterday
High -- | Low -- °F
Precip. -- in
Pressure 29.78 in
Visibility 8.0 miles
Clouds Overcast 5000 ft
Windchill 34 °F
Dew Point 32 °F
Humidity 94%
Rainfall 0.01 in
Snow Depth Not available.
7:11 AM 4:35 PM
Waning Gibbous, 94% visible
METAR KSPI 141252Z 32010KT 8SM OVC050 02/M02 A2976 RMK AO2 SLP082 T00171017
Pressure 29.78 in
Visibility 8.0 miles
Clouds Overcast 5000 ft
Windchill 34 °F
Dew Point 32 °F
Humidity 94%
Rainfall 0.01 in
Snow Depth Not available.
7:11 AM 4:35 PM
Waning Gibbous, 94% visible
METAR KSPI 141252Z 32010KT 8SM OVC050 02/M02 A2976 RMK AO2 SLP082 T00171017

Get Your Daily Forecast Email!

Thanks for signing up!

Be on the lookout for a verification email in your inbox.

You'll start receiving severe weather alerts in your inbox..

×

10-Day Weather Forecast

Almanac

Astronomy

Dec. 14, 2019 Rise Set
Actual Time
Civil Twilight
Nautical Twilight
Astronomical Twilight
Moon
Length of Visible Light
Length of Day
Tomorrow will be .
, % of the Moon is Illuminated

Today's Extremes

State Highs State Lows

Community

WunderPhotos

Category 6

Welcome to Category 6. This is the collective home for Weather Underground's featured writeups by Dr. Jeff Masters (right), Bob Henson (left), Chris Burt, and other regular contributors.

Nearby

Air Quality

  Air Quality AQ Index Pollutant
Not available.

Snow Depth

Station Depth Elevation

Earthquake Activity

City Distance Mag. Time & Date
Minimum magnitude displayed is 2.5.

Coastal Water Temperatures

Place Temperature

Stations

Nearby Weather Stations

Station Location Temp. Windchill Dew Point Humidity Wind Precip. Elev Updated Type
                   

Watches & Warnings

Winter Storm Watch
Issued: 4:04 AM CST Dec. 14, 2019 – National Weather Service

... Winter Storm Watch in effect from Sunday afternoon through
Monday evening...

* what... wintry mix of snow and freezing rain possible. Total
snow accumulations of 4 to 7 inches and ice accumulations of up
to one tenth of an inch possible.

* Where... portions of central and west central Illinois.

* When... from Sunday afternoon through Monday evening.

* Impacts... plan on slippery Road conditions. The hazardous
conditions could impact Sunday evening travelers and the Monday
morning and evening commutes.

Precautionary/preparedness actions...

Monitor the latest forecasts for updates on this situation.